Time;durP1;ratioP1;P1;durP2;ratioP2;P2;SDS_P1;SDS_P2;PMS_P1;PMS_P2;Temp;Humidity;BMP_temperature;BMP_pressure;BME280_temperature;BME280_humidity;BME280_pressure;Samples;Min_cycle;Max_cycle;Signal;HPM_P1;HPM_P2
2022/01/24 00:01:24;;;;;;;3.30;2.93;;;6.20;99.90;;;;;;5114483;28;20231;-55
2022/01/24 00:03:56;;;;;;;3.93;3.53;;;6.20;99.90;;;;;;5114733;28;20575;-55
2022/01/24 00:06:25;;;;;;;3.30;2.80;;;6.20;99.90;;;;;;5114778;28;20272;-55
2022/01/24 00:08:53;;;;;;;3.10;2.70;;;6.20;99.90;;;;;;5134036;27;20211;-55
2022/01/24 00:11:26;;;;;;;3.13;2.60;;;6.20;99.90;;;;;;5115770;27;20598;-55
2022/01/24 00:16:58;;;;;;;2.23;2.03;;;6.20;99.90;;;;;;5112369;28;20201;-54
2022/01/24 00:27:49;;;;;;;4.07;3.63;;;6.10;99.90;;;;;;5135044;27;20220;-55
2022/01/24 00:30:19;;;;;;;4.57;4.10;;;6.10;99.90;;;;;;5134431;27;20204;-55
2022/01/24 00:32:47;;;;;;;4.33;3.70;;;6.10;99.90;;;;;;5134668;27;20682;-56
2022/01/24 00:35:15;;;;;;;4.93;4.10;;;6.10;99.90;;;;;;5129462;27;20196;-56
2022/01/24 00:37:43;;;;;;;5.33;4.27;;;6.10;99.90;;;;;;5095586;28;20252;-56
2022/01/24 00:40:12;;;;;;;4.53;3.60;;;6.10;99.90;;;;;;5114107;28;20210;-55
2022/01/24 00:42:51;;;;;;;4.97;4.00;;;6.10;99.90;;;;;;5113821;28;20238;-55
2022/01/24 00:45:30;;;;;;;4.23;3.80;;;6.20;99.90;;;;;;5113717;28;20213;-55
2022/01/24 00:48:29;;;;;;;5.10;4.07;;;6.20;99.90;;;;;;5114075;28;20223;-54
2022/01/24 00:54:00;;;;;;;5.70;3.93;;;6.20;99.90;;;;;;5127321;27;20230;-54
2022/01/24 00:56:29;;;;;;;3.77;3.37;;;6.20;99.90;;;;;;5134856;27;20206;-55
2022/01/24 00:58:57;;;;;;;5.33;3.80;;;6.30;99.90;;;;;;5125854;27;20267;-55
2022/01/24 01:01:26;;;;;;;3.97;3.60;;;6.30;99.90;;;;;;5092927;28;20280;-55
2022/01/24 01:03:54;;;;;;;3.70;3.23;;;6.20;99.90;;;;;;5104770;28;20241;-55
2022/01/24 01:06:23;;;;;;;4.57;3.50;;;6.20;99.90;;;;;;5113966;28;20231;-55
2022/01/24 01:19:59;;;;;;;4.23;3.00;;;6.00;99.90;;;;;;5116419;27;20212;-55
2022/01/24 01:22:27;;;;;;;3.10;2.80;;;6.00;99.90;;;;;;5133571;27;20232;-55
2022/01/24 01:24:56;;;;;;;2.77;2.50;;;6.00;99.90;;;;;;5134453;27;20206;-55
2022/01/24 01:27:29;;;;;;;2.97;2.63;;;6.10;99.90;;;;;;5133797;27;20223;-55
2022/01/24 01:30:01;;;;;;;2.97;2.47;;;6.00;99.90;;;;;;5134132;27;20241;-57
2022/01/24 01:32:49;;;;;;;2.97;2.63;;;6.00;99.90;;;;;;5133443;27;20228;-55
2022/01/24 01:38:23;;;;;;;3.37;3.07;;;6.10;99.90;;;;;;5111358;28;20582;-56
2022/01/24 01:55:14;;;;;;;2.90;2.70;;;6.10;99.90;;;;;;5117606;27;20201;-55
2022/01/24 01:57:42;;;;;;;3.20;2.90;;;6.10;99.90;;;;;;5132888;27;20198;-55
2022/01/24 02:00:13;;;;;;;2.80;2.60;;;6.10;99.90;;;;;;5118370;27;20259;-55
2022/01/24 02:02:41;;;;;;;3.60;2.90;;;6.10;99.90;;;;;;5114298;27;20249;-55
2022/01/24 02:05:11;;;;;;;3.00;2.70;;;6.10;99.90;;;;;;5120924;27;20241;-56
2022/01/24 02:07:47;;;;;;;2.83;2.63;;;6.00;99.90;;;;;;5112054;28;20284;-55
2022/01/24 02:10:16;;;;;;;3.50;2.70;;;6.00;99.90;;;;;;5115522;27;20231;-56
2022/01/24 02:12:44;;;;;;;2.20;2.00;;;6.00;99.90;;;;;;5102019;27;20228;-56
2022/01/24 02:15:17;;;;;;;2.50;2.30;;;6.10;99.90;;;;;;5118174;27;20196;-55
2022/01/24 02:17:58;;;;;;;2.50;2.30;;;6.00;99.90;;;;;;5112690;28;20255;-55
2022/01/24 02:20:42;;;;;;;2.70;2.50;;;6.00;99.90;;;;;;5119114;27;20247;-56
2022/01/24 02:23:31;;;;;;;2.40;2.20;;;6.00;99.90;;;;;;5132381;27;20656;-55
2022/01/24 02:26:03;;;;;;;2.93;2.70;;;6.00;99.90;;;;;;5132510;27;20206;-55
2022/01/24 02:28:43;;;;;;;2.73;2.53;;;6.00;99.90;;;;;;5132505;27;20608;-55
2022/01/24 02:31:25;;;;;;;2.70;2.50;;;6.00;99.90;;;;;;5121602;27;20713;-55
2022/01/24 02:33:54;;;;;;;2.73;2.53;;;6.00;99.90;;;;;;5091758;28;20211;-55
2022/01/24 02:36:24;;;;;;;2.60;2.40;;;5.90;99.90;;;;;;5106344;28;20198;-55
2022/01/24 02:39:06;;;;;;;2.90;2.70;;;5.90;99.90;;;;;;5111703;28;20271;-55
2022/01/24 02:49:52;;;;;;;3.13;2.93;;;5.90;99.90;;;;;;5112088;28;20587;-55
2022/01/24 02:52:24;;;;;;;2.90;2.60;;;6.00;99.90;;;;;;5113093;27;20760;-55
2022/01/24 02:54:53;;;;;;;2.43;2.20;;;6.00;99.90;;;;;;5131987;27;20251;-55
2022/01/24 02:57:22;;;;;;;2.37;2.17;;;6.00;99.90;;;;;;5114548;28;20212;-55
2022/01/24 02:59:50;;;;;;;2.90;2.20;;;6.00;99.90;;;;;;5109628;28;20205;-55
2022/01/24 03:02:18;;;;;;;2.43;2.23;;;5.90;99.90;;;;;;5111046;28;20231;-55
2022/01/24 03:04:46;;;;;;;3.10;2.80;;;5.90;99.90;;;;;;5111536;28;20255;-55
2022/01/24 03:07:15;;;;;;;2.80;2.60;;;5.90;99.90;;;;;;5111463;28;20266;-56
2022/01/24 03:09:45;;;;;;;2.90;2.70;;;5.90;99.90;;;;;;5115886;27;20230;-55
2022/01/24 03:12:25;;;;;;;2.13;1.97;;;5.90;99.90;;;;;;5130770;27;20269;-55
2022/01/24 03:14:53;;;;;;;2.30;2.10;;;5.70;99.90;;;;;;5096033;28;20610;-54
2022/01/24 03:17:21;;;;;;;2.23;2.13;;;5.70;99.90;;;;;;5112461;28;20201;-54
2022/01/24 03:19:49;;;;;;;2.17;2.07;;;5.70;99.90;;;;;;5114453;28;20673;-55
2022/01/24 03:22:17;;;;;;;2.60;2.40;;;5.70;99.90;;;;;;5133603;27;20244;-55
2022/01/24 03:24:45;;;;;;;2.63;2.43;;;5.80;99.90;;;;;;5137074;27;20223;-54
2022/01/24 03:27:15;;;;;;;3.00;2.70;;;5.80;99.90;;;;;;5119837;27;20222;-55
2022/01/24 03:29:43;;;;;;;2.67;2.47;;;5.80;99.90;;;;;;5094911;28;20219;-55
2022/01/24 03:32:11;;;;;;;2.57;2.37;;;5.80;99.90;;;;;;5095216;28;20275;-54
2022/01/24 03:34:40;;;;;;;1.73;1.63;;;5.90;99.90;;;;;;5094978;28;20207;-56
2022/01/24 03:37:08;;;;;;;1.77;1.67;;;6.00;99.90;;;;;;5125573;27;20208;-55
2022/01/24 03:39:36;;;;;;;2.57;2.37;;;5.90;99.90;;;;;;5135830;27;20206;-55
2022/01/24 03:42:05;;;;;;;3.00;2.80;;;5.90;99.90;;;;;;5135904;27;20220;-55
2022/01/24 03:44:35;;;;;;;3.30;3.00;;;5.90;99.90;;;;;;5135979;27;20207;-55
2022/01/24 03:47:29;;;;;;;2.87;2.67;;;5.80;99.90;;;;;;5135408;27;20244;-56
2022/01/24 03:49:57;;;;;;;2.30;2.20;;;5.70;99.90;;;;;;5127735;27;20221;-55
2022/01/24 03:52:25;;;;;;;2.40;2.20;;;5.80;99.90;;;;;;5116502;27;20684;-55
2022/01/24 03:54:53;;;;;;;1.80;1.70;;;5.70;99.90;;;;;;5135001;27;20205;-55
2022/01/24 03:57:21;;;;;;;1.93;1.83;;;5.70;99.90;;;;;;5114463;28;20198;-55
2022/01/24 03:59:51;;;;;;;2.07;1.87;;;5.70;99.90;;;;;;5114680;28;20204;-55
2022/01/24 04:02:23;;;;;;;2.53;2.07;;;5.60;99.90;;;;;;5115099;28;20288;-55
2022/01/24 04:04:52;;;;;;;2.40;2.20;;;5.50;99.90;;;;;;5114794;28;20743;-55
2022/01/24 04:07:20;;;;;;;2.07;1.87;;;5.60;99.90;;;;;;5114707;28;20630;-54
2022/01/24 04:09:49;;;;;;;1.80;1.70;;;5.60;99.90;;;;;;5119635;27;20254;-55
2022/01/24 04:12:17;;;;;;;2.20;2.00;;;5.60;99.90;;;;;;5135107;27;20227;-55
2022/01/24 04:14:55;;;;;;;1.63;1.53;;;5.70;99.90;;;;;;5114487;27;20693;-55
2022/01/24 04:17:36;;;;;;;2.10;2.00;;;5.80;99.90;;;;;;5114760;28;20230;-55
2022/01/24 04:22:53;;;;;;;2.13;1.93;;;5.70;99.90;;;;;;5129550;27;20226;-55
2022/01/24 04:25:23;;;;;;;2.30;2.10;;;5.70;99.90;;;;;;5094354;28;20261;-55
2022/01/24 04:27:55;;;;;;;2.60;2.40;;;5.70;99.90;;;;;;5093900;28;20222;-54
2022/01/24 04:30:27;;;;;;;2.70;2.50;;;5.70;99.90;;;;;;5093863;28;20206;-56
2022/01/24 04:32:56;;;;;;;3.10;2.90;;;5.70;99.90;;;;;;5093004;28;20211;-55
2022/01/24 04:35:25;;;;;;;3.00;2.80;;;5.80;99.90;;;;;;5100209;28;20304;-55
2022/01/24 04:37:53;;;;;;;3.30;3.10;;;5.80;99.90;;;;;;5130711;27;20256;-55
2022/01/24 04:40:21;;;;;;;3.63;3.33;;;5.80;99.90;;;;;;5133931;27;20213;-55
2022/01/24 04:42:57;;;;;;;3.70;3.40;;;5.70;99.90;;;;;;5134588;27;20566;-55
2022/01/24 04:45:36;;;;;;;3.40;3.10;;;5.70;99.90;;;;;;5119280;27;20232;-55
2022/01/24 04:54:13;;;;;;;2.23;2.13;;;5.70;99.90;;;;;;5114999;27;20195;-55
2022/01/24 04:56:42;;;;;;;2.37;2.27;;;5.80;99.90;;;;;;5113845;28;20211;-55
2022/01/24 04:59:11;;;;;;;2.33;2.23;;;5.80;99.90;;;;;;5107849;28;20242;-55
2022/01/24 05:01:39;;;;;;;2.97;2.77;;;5.70;99.90;;;;;;5093132;28;20268;-54
2022/01/24 05:04:09;;;;;;;3.30;3.00;;;5.70;99.90;;;;;;5093566;28;20218;-55
2022/01/24 05:06:37;;;;;;;2.77;2.57;;;5.60;99.90;;;;;;5093379;28;20264;-56
2022/01/24 05:09:06;;;;;;;2.57;2.37;;;5.70;99.90;;;;;;5095768;28;20251;-55
2022/01/24 05:11:41;;;;;;;2.80;2.60;;;5.60;99.90;;;;;;5132693;27;20248;-54
2022/01/24 05:25:17;;;;;;;4.47;4.07;;;5.70;99.90;;;;;;5133666;27;20203;-55
2022/01/24 05:27:45;;;;;;;5.00;4.50;;;5.70;99.90;;;;;;5134266;27;20231;-55
2022/01/24 05:30:14;;;;;;;5.40;5.00;;;5.70;99.90;;;;;;5133549;27;20251;-55
2022/01/24 05:32:43;;;;;;;5.73;5.23;;;5.60;99.90;;;;;;5133415;27;20618;-56
2022/01/24 05:35:12;;;;;;;5.57;5.07;;;5.60;99.90;;;;;;5128928;27;20203;-54
2022/01/24 05:37:41;;;;;;;5.10;4.70;;;5.60;99.90;;;;;;5128465;27;20211;-55
2022/01/24 05:40:10;;;;;;;5.37;4.90;;;5.60;99.90;;;;;;5133201;27;20224;-55
2022/01/24 05:42:38;;;;;;;6.00;5.00;;;5.70;99.90;;;;;;5133677;27;20208;-55
2022/01/24 05:45:08;;;;;;;5.30;4.80;;;5.70;99.90;;;;;;5131506;27;20239;-55
2022/01/24 05:47:36;;;;;;;5.40;5.00;;;5.70;99.90;;;;;;5132482;27;20242;-54
2022/01/24 05:50:05;;;;;;;6.10;5.60;;;5.70;99.90;;;;;;5112760;28;20259;-55
2022/01/24 05:52:35;;;;;;;6.33;5.83;;;5.70;99.90;;;;;;5114427;27;20220;-55
2022/01/24 05:55:04;;;;;;;6.60;6.00;;;5.60;99.90;;;;;;5130361;27;20665;-55
2022/01/24 05:57:32;;;;;;;6.73;6.13;;;5.70;99.90;;;;;;5112526;28;20265;-55
2022/01/24 06:00:01;;;;;;;6.77;6.17;;;5.60;99.90;;;;;;5100054;28;20201;-55
2022/01/24 06:02:29;;;;;;;6.83;6.23;;;5.60;99.90;;;;;;5092247;28;20665;-55
2022/01/24 06:04:57;;;;;;;6.30;5.80;;;5.60;99.90;;;;;;5092874;28;20201;-55
2022/01/24 06:07:25;;;;;;;6.17;5.67;;;5.50;99.90;;;;;;5112143;28;20204;-55
2022/01/24 06:09:54;;;;;;;7.13;6.43;;;5.50;99.90;;;;;;5117039;27;20299;-55
2022/01/24 06:12:23;;;;;;;6.37;5.77;;;5.50;99.90;;;;;;5128704;27;20233;-55
2022/01/24 06:14:51;;;;;;;6.73;6.13;;;5.40;99.90;;;;;;5132341;27;20228;-55
2022/01/24 06:17:19;;;;;;;6.87;6.30;;;5.40;99.90;;;;;;5113268;27;20205;-55
2022/01/24 06:19:47;;;;;;;7.63;6.90;;;5.40;99.90;;;;;;5110604;28;20196;-55
2022/01/24 06:22:15;;;;;;;8.13;7.43;;;5.40;99.90;;;;;;5125908;27;20219;-55
2022/01/24 06:24:43;;;;;;;7.53;6.90;;;5.40;99.90;;;;;;5131079;27;20216;-55
2022/01/24 06:27:33;;;;;;;7.47;6.77;;;5.40;99.90;;;;;;5127620;27;20299;-55
2022/01/24 06:30:01;;;;;;;6.60;6.10;;;5.40;99.90;;;;;;5132256;27;20255;-55
2022/01/24 06:32:29;;;;;;;7.20;6.50;;;5.30;99.90;;;;;;5132462;27;20223;-54
2022/01/24 06:34:57;;;;;;;7.07;6.47;;;5.40;99.90;;;;;;5127959;27;20213;-55
2022/01/24 06:37:25;;;;;;;7.20;6.50;;;5.40;99.90;;;;;;5091758;28;20203;-54
2022/01/24 06:39:54;;;;;;;7.50;6.80;;;5.40;99.90;;;;;;5103791;27;20195;-55
2022/01/24 06:42:23;;;;;;;6.63;6.03;;;5.40;99.90;;;;;;5115198;27;20285;-55
2022/01/24 06:44:54;;;;;;;8.13;7.10;;;5.50;99.90;;;;;;5121353;27;20210;-54
2022/01/24 06:47:23;;;;;;;7.50;6.80;;;5.40;99.90;;;;;;5091227;28;20201;-54
2022/01/24 06:49:51;;;;;;;8.43;7.60;;;5.40;99.90;;;;;;5098420;28;20257;-54
2022/01/24 06:52:20;;;;;;;7.47;6.80;;;5.40;99.90;;;;;;5111185;27;20229;-55
2022/01/24 06:54:48;;;;;;;7.90;6.67;;;5.40;99.90;;;;;;5104701;27;20211;-54
2022/01/24 06:57:17;;;;;;;7.63;6.90;;;5.40;99.90;;;;;;5099564;28;20200;-55
2022/01/24 06:59:46;;;;;;;7.00;6.40;;;5.50;99.90;;;;;;5099414;28;20718;-54
2022/01/24 07:02:16;;;;;;;7.53;6.83;;;5.50;99.90;;;;;;5112721;27;20232;-55
2022/01/24 07:04:45;;;;;;;7.83;7.10;;;5.40;99.90;;;;;;5111591;28;20296;-55
2022/01/24 07:07:14;;;;;;;7.47;6.77;;;5.40;99.90;;;;;;5110872;28;20243;-54
2022/01/24 07:09:44;;;;;;;7.80;7.10;;;5.40;99.90;;;;;;5115628;27;20697;-56
2022/01/24 07:12:12;;;;;;;7.07;6.37;;;5.40;99.90;;;;;;5118843;27;20224;-55
2022/01/24 07:14:42;;;;;;;7.90;7.10;;;5.40;99.90;;;;;;5110539;28;20252;-55
2022/01/24 07:17:28;;;;;;;7.10;6.50;;;5.40;99.90;;;;;;5111080;28;20269;-56
2022/01/24 07:19:58;;;;;;;5.97;5.47;;;5.40;99.90;;;;;;5110996;28;20206;-55
2022/01/24 07:22:26;;;;;;;6.23;5.57;;;5.50;99.90;;;;;;5111034;28;20232;-55
2022/01/24 07:24:54;;;;;;;6.60;6.00;;;5.50;99.90;;;;;;5110878;28;20220;-55
2022/01/24 07:27:22;;;;;;;7.10;6.40;;;5.50;99.90;;;;;;5111367;28;20205;-56
2022/01/24 07:29:50;;;;;;;6.63;6.03;;;5.50;99.90;;;;;;5110715;28;20220;-55
2022/01/24 07:32:18;;;;;;;6.77;6.03;;;5.40;99.90;;;;;;5110237;28;20224;-55
2022/01/24 07:34:46;;;;;;;6.93;6.07;;;5.40;99.90;;;;;;5110749;28;20257;-55
2022/01/24 07:37:16;;;;;;;5.90;5.40;;;5.30;99.90;;;;;;5111020;28;20604;-55
2022/01/24 07:39:44;;;;;;;6.20;5.50;;;5.40;99.90;;;;;;5111172;28;20228;-55
2022/01/24 07:42:17;;;;;;;5.47;4.97;;;5.50;99.90;;;;;;5120762;28;20230;-55
2022/01/24 07:44:46;;;;;;;9.27;5.70;;;5.50;99.90;;;;;;5110732;28;20281;-55
2022/01/24 07:47:14;;;;;;;6.03;5.43;;;5.40;99.90;;;;;;5111057;28;20255;-56
2022/01/24 07:49:42;;;;;;;5.80;5.30;;;5.40;99.90;;;;;;5111351;28;20585;-55
2022/01/24 07:52:12;;;;;;;7.30;6.43;;;5.40;99.90;;;;;;5110327;28;20259;-55
2022/01/24 07:54:41;;;;;;;6.70;6.10;;;5.40;99.90;;;;;;5131488;28;20221;-55
2022/01/24 07:57:09;;;;;;;7.03;6.33;;;5.40;99.90;;;;;;5127420;28;20580;-55
2022/01/24 07:59:37;;;;;;;7.60;6.90;;;5.30;99.90;;;;;;5109686;28;20242;-55
2022/01/24 08:02:05;;;;;;;7.47;6.77;;;5.20;99.90;;;;;;5102187;28;20234;-54
2022/01/24 08:04:34;;;;;;;7.40;6.70;;;5.20;99.90;;;;;;5089523;28;20204;-55
2022/01/24 08:07:02;;;;;;;7.83;7.13;;;5.20;99.90;;;;;;5090482;28;20361;-54
2022/01/24 08:09:30;;;;;;;7.13;6.43;;;5.10;99.90;;;;;;5115567;27;20224;-54
2022/01/24 08:11:59;;;;;;;9.10;8.13;;;5.20;99.90;;;;;;5113034;28;20241;-55
2022/01/24 08:14:28;;;;;;;8.67;7.83;;;5.20;99.90;;;;;;5114502;28;20216;-54
2022/01/24 08:16:56;;;;;;;8.90;8.00;;;5.20;99.90;;;;;;5109664;28;20211;-55
2022/01/24 08:19:24;;;;;;;8.67;7.67;;;5.10;99.90;;;;;;5105350;28;20295;-56
2022/01/24 08:21:54;;;;;;;8.67;7.87;;;5.10;99.90;;;;;;5133143;27;20234;-54
2022/01/24 08:24:22;;;;;;;8.70;7.80;;;5.10;99.90;;;;;;5134522;27;20216;-56
2022/01/24 08:26:51;;;;;;;8.20;7.40;;;5.10;99.90;;;;;;5121605;27;20229;-55
2022/01/24 08:29:21;;;;;;;7.20;6.50;;;5.00;99.90;;;;;;5113553;28;20253;-55
2022/01/24 08:31:49;;;;;;;7.40;6.70;;;5.20;99.90;;;;;;5112923;28;20249;-55
2022/01/24 08:34:17;;;;;;;7.60;6.80;;;5.20;99.90;;;;;;5125303;27;20207;-54
2022/01/24 08:36:45;;;;;;;7.17;6.47;;;5.20;99.90;;;;;;5116926;27;20255;-54
2022/01/24 08:39:13;;;;;;;6.70;6.07;;;5.20;99.90;;;;;;5116270;28;20281;-54
2022/01/24 08:41:49;;;;;;;6.13;5.57;;;5.20;99.90;;;;;;5115300;28;20285;-54
2022/01/24 08:44:32;;;;;;;6.83;6.23;;;5.20;99.90;;;;;;5115430;28;20252;-55
2022/01/24 08:47:02;;;;;;;7.40;6.80;;;5.30;99.90;;;;;;5114740;28;20214;-55
2022/01/24 08:49:30;;;;;;;7.00;6.40;;;5.20;99.90;;;;;;5114232;28;20196;-56
2022/01/24 08:51:59;;;;;;;6.53;6.00;;;5.30;99.90;;;;;;5112575;28;20228;-56
2022/01/24 08:54:34;;;;;;;7.53;6.83;;;5.30;99.90;;;;;;5126899;27;20227;-55
2022/01/24 08:57:02;;;;;;;7.90;7.10;;;5.30;99.90;;;;;;5113888;28;20208;-53
2022/01/24 08:59:31;;;;;;;7.77;7.07;;;5.20;99.90;;;;;;5105287;28;20276;-56
2022/01/24 09:02:00;;;;;;;6.47;5.87;;;5.20;99.90;;;;;;5093472;28;20228;-55
2022/01/24 09:04:31;;;;;;;5.90;5.40;;;5.20;99.90;;;;;;5099258;28;20200;-54
2022/01/24 09:07:03;;;;;;;5.80;5.30;;;5.10;99.90;;;;;;5112340;28;20208;-55
2022/01/24 09:09:34;;;;;;;5.60;5.10;;;5.00;99.90;;;;;;5114597;27;20274;-54
2022/01/24 09:12:02;;;;;;;5.13;4.70;;;5.10;99.90;;;;;;5134310;27;20288;-56
2022/01/24 09:14:30;;;;;;;5.87;5.37;;;5.10;99.90;;;;;;5134104;27;20216;-56
2022/01/24 09:16:59;;;;;;;5.90;5.40;;;5.20;99.90;;;;;;5134233;27;20213;-54
2022/01/24 09:19:27;;;;;;;6.43;5.83;;;5.10;99.90;;;;;;5134001;27;20606;-56
2022/01/24 09:21:56;;;;;;;6.27;5.77;;;5.20;99.90;;;;;;5113871;27;20217;-55
2022/01/24 09:24:24;;;;;;;5.60;5.10;;;5.20;99.90;;;;;;5113370;28;20286;-56
2022/01/24 09:26:53;;;;;;;5.50;5.10;;;5.20;99.90;;;;;;5113362;28;20203;-55
2022/01/24 09:29:21;;;;;;;5.70;5.20;;;5.20;99.90;;;;;;5108646;28;20201;-55
2022/01/24 09:31:49;;;;;;;5.70;5.20;;;5.10;99.90;;;;;;5098971;28;20292;-54
2022/01/24 09:34:20;;;;;;;5.90;5.40;;;5.20;99.90;;;;;;5107984;28;20210;-55
2022/01/24 09:36:48;;;;;;;6.70;6.10;;;5.20;99.90;;;;;;5113305;28;20202;-55
2022/01/24 09:39:18;;;;;;;6.70;6.10;;;5.30;99.90;;;;;;5112672;28;20260;-55
2022/01/24 09:41:47;;;;;;;7.20;6.50;;;5.20;99.90;;;;;;5112760;28;20597;-54
2022/01/24 09:44:33;;;;;;;6.07;5.57;;;5.20;99.90;;;;;;5112212;28;20253;-55
2022/01/24 09:47:01;;;;;;;5.93;5.43;;;5.30;99.90;;;;;;5113389;28;20257;-55
2022/01/24 09:49:29;;;;;;;5.87;5.37;;;5.30;99.90;;;;;;5110737;28;20204;-55
2022/01/24 09:51:57;;;;;;;7.23;6.63;;;5.30;99.90;;;;;;5111504;28;20225;-55
2022/01/24 09:54:27;;;;;;;6.77;6.17;;;5.30;99.90;;;;;;5132392;27;20268;-55
2022/01/24 09:56:55;;;;;;;6.80;5.77;;;5.20;99.90;;;;;;5133310;27;20289;-55
2022/01/24 09:59:23;;;;;;;6.83;6.23;;;5.20;99.90;;;;;;5125408;27;20210;-54
2022/01/24 10:01:51;;;;;;;6.43;5.93;;;5.20;99.90;;;;;;5111523;28;20264;-55
2022/01/24 10:04:21;;;;;;;6.30;5.70;;;5.20;99.90;;;;;;5105484;28;20571;-55
2022/01/24 10:06:57;;;;;;;6.20;5.70;;;5.20;99.90;;;;;;5097092;28;20577;-54
2022/01/24 10:09:32;;;;;;;6.53;5.93;;;5.20;99.90;;;;;;5112170;27;20214;-55
2022/01/24 10:12:17;;;;;;;6.20;5.70;;;5.10;99.90;;;;;;5133088;27;20228;-55
2022/01/24 10:17:37;;;;;;;6.30;5.70;;;5.30;99.90;;;;;;5112403;28;20210;-55
2022/01/24 10:20:23;;;;;;;6.47;5.87;;;5.30;99.90;;;;;;5111672;28;20196;-55
2022/01/24 10:23:03;;;;;;;6.80;6.13;;;5.30;99.90;;;;;;5096443;28;20216;-55
2022/01/24 10:25:44;;;;;;;6.83;6.23;;;5.30;99.90;;;;;;5113198;27;20207;-55
2022/01/24 10:28:21;;;;;;;6.10;5.60;;;5.30;99.90;;;;;;5132731;27;20611;-55
2022/01/24 10:31:01;;;;;;;6.37;5.50;;;5.40;99.90;;;;;;5108928;27;20265;-55
2022/01/24 10:33:30;;;;;;;6.73;6.13;;;5.50;99.90;;;;;;5097480;28;20219;-55
2022/01/24 10:36:44;;;;;;;19.97;13.03;;;5.50;99.90;;;;;;5105486;28;20208;-54
2022/01/24 10:39:21;;;;;;;8.53;7.50;;;5.50;99.90;;;;;;5111984;28;20203;-54
2022/01/24 10:42:25;;;;;;;8.00;7.20;;;5.50;99.90;;;;;;5107303;28;20273;-55
2022/01/24 10:44:54;;;;;;;7.50;6.80;;;5.50;99.90;;;;;;5101454;28;20590;-54
2022/01/24 10:47:27;;;;;;;7.80;5.93;;;5.40;99.90;;;;;;5111256;28;20255;-55
2022/01/24 10:49:57;;;;;;;6.90;6.30;;;5.50;99.90;;;;;;5111471;28;20199;-55
2022/01/24 10:52:27;;;;;;;6.10;5.60;;;5.50;99.90;;;;;;5108432;28;20278;-55
2022/01/24 10:55:12;;;;;;;6.17;5.67;;;5.50;99.90;;;;;;5091269;28;20198;-54
2022/01/24 10:57:43;;;;;;;7.33;6.63;;;5.50;99.90;;;;;;5102277;28;20263;-55
2022/01/24 11:00:14;;;;;;;7.33;6.10;;;5.50;99.90;;;;;;5110230;28;20206;-54
2022/01/24 11:02:45;;;;;;;17.40;12.53;;;5.50;99.90;;;;;;5110886;28;20210;-54
2022/01/24 11:05:16;;;;;;;11.70;9.33;;;5.50;99.90;;;;;;5111842;28;20207;-54
2022/01/24 11:07:53;;;;;;;8.47;7.60;;;5.60;99.90;;;;;;5116759;27;20286;-55
2022/01/24 11:10:23;;;;;;;6.40;5.83;;;5.70;99.90;;;;;;5131813;27;20251;-55
2022/01/24 11:12:53;;;;;;;5.53;5.07;;;5.70;99.90;;;;;;5132815;27;20228;-55
2022/01/24 11:15:21;;;;;;;5.73;5.23;;;5.60;99.90;;;;;;5132615;27;20204;-54
2022/01/24 11:17:50;;;;;;;5.53;4.97;;;5.60;99.90;;;;;;5132324;27;20208;-54
2022/01/24 11:20:19;;;;;;;5.70;5.10;;;5.50;99.90;;;;;;5122853;28;20196;-54
2022/01/24 11:22:51;;;;;;;5.47;4.97;;;5.50;99.90;;;;;;5100697;28;20245;-54
2022/01/24 11:25:19;;;;;;;5.30;4.90;;;5.50;99.90;;;;;;5110083;28;20684;-54
2022/01/24 11:27:48;;;;;;;5.20;4.70;;;5.70;99.90;;;;;;5110999;28;20245;-55
2022/01/24 11:30:22;;;;;;;5.40;4.90;;;5.70;99.90;;;;;;5110441;28;20205;-54
2022/01/24 11:32:53;;;;;;;5.47;5.07;;;5.70;99.90;;;;;;5110680;28;20333;-55
2022/01/24 11:35:40;;;;;;;5.33;4.83;;;5.60;99.90;;;;;;5110631;28;20548;-55
2022/01/24 11:38:29;;;;;;;6.13;5.53;;;5.50;99.90;;;;;;5110612;28;20255;-54
2022/01/24 11:41:00;;;;;;;7.43;6.77;;;5.60;99.90;;;;;;5110869;28;20227;-54
2022/01/24 11:43:33;;;;;;;8.07;6.77;;;5.60;99.90;;;;;;5112669;28;20607;-54
2022/01/24 11:46:07;;;;;;;8.73;7.93;;;5.60;99.90;;;;;;5115224;28;20187;-54
2022/01/24 11:48:38;;;;;;;5.80;5.30;;;5.70;99.90;;;;;;5114779;28;20726;-54
2022/01/24 11:51:09;;;;;;;7.67;6.83;;;5.70;99.90;;;;;;5132670;27;20227;-55
2022/01/24 11:53:42;;;;;;;7.83;7.13;;;5.70;99.90;;;;;;5121680;27;20252;-55
2022/01/24 11:56:23;;;;;;;7.10;6.40;;;5.70;99.90;;;;;;5114108;28;20724;-54
2022/01/24 11:58:53;;;;;;;7.67;6.97;;;5.70;99.90;;;;;;5114743;28;20272;-54
2022/01/24 12:01:37;;;;;;;7.13;6.30;;;5.70;99.90;;;;;;5114085;28;20259;-54
2022/01/24 12:04:05;;;;;;;7.03;6.33;;;5.50;99.90;;;;;;5114833;28;20204;-55
2022/01/24 12:07:07;;;;;;;5.80;5.27;;;5.60;99.90;;;;;;5114343;28;20251;-55
2022/01/24 12:09:35;;;;;;;6.03;5.50;;;5.70;99.90;;;;;;5132072;27;20207;-54
2022/01/24 12:12:36;;;;;;;5.93;5.27;;;5.70;99.90;;;;;;5134470;27;20227;-55
2022/01/24 12:15:06;;;;;;;6.60;6.00;;;5.70;99.90;;;;;;5134270;27;20689;-55
2022/01/24 12:17:50;;;;;;;6.00;5.50;;;5.70;99.90;;;;;;5134880;27;20204;-54
2022/01/24 12:20:49;;;;;;;7.03;5.63;;;5.60;99.90;;;;;;5114124;28;20205;-55
2022/01/24 12:23:38;;;;;;;6.30;5.70;;;5.60;99.90;;;;;;5123987;27;20691;-53
2022/01/24 12:26:32;;;;;;;6.33;5.73;;;5.60;99.90;;;;;;5113932;28;20208;-54
2022/01/24 12:29:03;;;;;;;6.33;5.73;;;5.50;99.90;;;;;;5122780;27;20277;-54
2022/01/24 12:31:45;;;;;;;6.03;5.53;;;5.50;99.90;;;;;;5134407;27;20220;-55
2022/01/24 12:34:19;;;;;;;6.03;5.43;;;5.70;99.90;;;;;;5134985;27;20206;-55
2022/01/24 12:37:00;;;;;;;14.73;12.23;;;5.70;99.90;;;;;;5105362;27;20231;-54
2022/01/24 12:39:37;;;;;;;6.53;5.73;;;5.80;99.90;;;;;;5100691;28;20205;-54
2022/01/24 12:42:11;;;;;;;11.43;9.67;;;5.70;99.90;;;;;;5114612;27;20271;-55
2022/01/24 12:47:29;;;;;;;5.17;4.63;;;5.50;99.90;;;;;;5134671;27;20618;-54
2022/01/24 12:49:58;;;;;;;4.87;4.47;;;5.50;99.90;;;;;;5123938;27;20215;-55
2022/01/24 12:52:29;;;;;;;5.77;4.57;;;5.70;99.90;;;;;;5113144;28;20225;-55
2022/01/24 12:55:05;;;;;;;4.77;4.33;;;5.60;99.90;;;;;;5113696;27;20282;-55
2022/01/24 12:57:39;;;;;;;5.03;4.37;;;5.70;99.90;;;;;;5117795;27;20203;-55
2022/01/24 13:00:11;;;;;;;5.13;4.63;;;5.60;99.90;;;;;;5112124;28;20213;-54
2022/01/24 13:02:40;;;;;;;7.87;4.70;;;5.50;99.90;;;;;;5112530;28;20221;-54
2022/01/24 13:05:11;;;;;;;4.90;4.40;;;5.60;99.90;;;;;;5094853;27;20214;-54
2022/01/24 13:07:42;;;;;;;6.17;5.47;;;5.70;99.90;;;;;;5116672;27;20625;-54
2022/01/24 13:10:13;;;;;;;5.33;4.80;;;5.80;99.90;;;;;;5121049;27;20208;-55
2022/01/24 13:12:42;;;;;;;4.63;4.23;;;5.80;99.90;;;;;;5131710;27;20270;-54
2022/01/24 13:15:24;;;;;;;4.77;4.37;;;5.80;99.90;;;;;;5112614;28;20208;-54
2022/01/24 13:23:30;;;;;;;7.30;5.63;;;5.50;99.90;;;;;;5117209;27;20626;-55
2022/01/24 13:25:58;;;;;;;5.33;4.83;;;5.50;99.90;;;;;;5133586;27;20256;-54
2022/01/24 13:28:27;;;;;;;7.53;6.20;;;5.70;99.90;;;;;;5133192;27;20243;-55
2022/01/24 13:30:59;;;;;;;6.83;4.50;;;5.70;99.90;;;;;;5132808;27;20228;-55
2022/01/24 13:33:29;;;;;;;5.40;4.90;;;5.70;99.90;;;;;;5132784;27;20292;-54
2022/01/24 13:36:01;;;;;;;5.27;4.03;;;5.80;99.90;;;;;;5121800;27;20209;-55
2022/01/24 13:38:30;;;;;;;4.07;3.77;;;5.80;99.90;;;;;;5112859;28;20211;-54
2022/01/24 13:41:02;;;;;;;3.60;3.30;;;5.90;99.90;;;;;;5112474;28;20617;-54
2022/01/24 13:43:34;;;;;;;4.70;3.63;;;5.80;99.90;;;;;;5112579;28;20243;-55
2022/01/24 13:46:04;;;;;;;7.33;5.13;;;5.90;99.90;;;;;;5112255;28;20211;-55
2022/01/24 13:48:43;;;;;;;5.73;5.13;;;5.80;99.90;;;;;;5123041;27;20254;-54
2022/01/24 13:51:14;;;;;;;6.80;6.20;;;5.60;99.90;;;;;;5114181;27;20613;-54
2022/01/24 13:53:44;;;;;;;8.00;6.20;;;5.70;99.90;;;;;;5125525;27;20268;-55
2022/01/24 13:56:18;;;;;;;5.60;5.10;;;5.80;99.90;;;;;;5112800;27;20275;-54
2022/01/24 13:58:59;;;;;;;4.70;4.30;;;5.70;99.90;;;;;;5112258;28;20188;-54
2022/01/24 14:01:27;;;;;;;4.73;4.30;;;5.70;99.90;;;;;;5114126;27;20228;-53
2022/01/24 14:03:57;;;;;;;4.67;4.27;;;5.50;99.90;;;;;;5134001;27;20208;-54
2022/01/24 14:06:31;;;;;;;5.03;4.13;;;5.60;99.90;;;;;;5132464;27;20210;-53
2022/01/24 14:09:06;;;;;;;6.20;4.77;;;5.70;99.90;;;;;;5132887;27;20203;-54
2022/01/24 14:11:39;;;;;;;4.60;3.80;;;5.70;99.90;;;;;;5121684;27;20302;-55
2022/01/24 14:14:12;;;;;;;4.30;3.70;;;5.50;99.90;;;;;;5124938;27;20259;-54
2022/01/24 14:16:47;;;;;;;3.97;3.57;;;5.50;99.90;;;;;;5128119;27;20207;-54
2022/01/24 14:19:16;;;;;;;4.07;3.63;;;5.60;99.90;;;;;;5133011;27;20183;-54
2022/01/24 14:22:07;;;;;;;5.13;4.53;;;5.60;99.90;;;;;;5132160;27;20220;-54
2022/01/24 14:24:46;;;;;;;5.27;4.80;;;5.70;99.90;;;;;;5132461;27;20250;-54
2022/01/24 14:27:14;;;;;;;6.83;6.13;;;5.60;99.90;;;;;;5131677;27;20787;-56
2022/01/24 14:29:42;;;;;;;5.97;5.13;;;5.60;99.90;;;;;;5129390;27;20206;-54
2022/01/24 14:32:13;;;;;;;6.83;4.77;;;5.60;99.90;;;;;;5123096;27;20219;-55
2022/01/24 14:34:41;;;;;;;5.27;4.77;;;5.50;99.90;;;;;;5111290;28;20209;-55
2022/01/24 14:37:11;;;;;;;5.60;5.10;;;5.50;99.90;;;;;;5112104;28;20253;-55
2022/01/24 14:39:47;;;;;;;5.13;4.27;;;5.50;99.90;;;;;;5111256;28;20242;-54
2022/01/24 14:42:30;;;;;;;5.20;4.60;;;5.60;99.90;;;;;;5110762;28;20231;-55
2022/01/24 14:44:59;;;;;;;11.80;10.60;;;5.50;99.90;;;;;;5123556;27;20206;-55